Glenwood, Minnesota
Current Conditions -  °F | °C
As of 3:13 PM on Sunday 23 Nov 2014 (Local Time) from KGHW Reporting Station
Clear Clear  
Wind Chill: 30°   Ceiling: Unl
Heat Index: 37°   Visibility: 10mi
Dew Point: 34°   Wind: 10mph
Humidity: 87%   Direction: 280°W
Pressure: 29.43"   Gusts: NA
Location:  45.65°N, 95.39°W
Report Text: KGHW 232113Z AUTO 28009KT 10SM CLR 03/01 A2943 RMK AO2
Loading
Personal Weather Stations






























Interactive Weather Map New forecast layout! Learn more

10-Day Weather Forecast

Advertisements
Track Severe Weather on mobile